createdAt,value
2022-12-16T00:01:16.029Z,-4.25
2022-12-16T00:03:48.550Z,-4.27
2022-12-16T00:06:15.994Z,-4.27
2022-12-16T00:08:42.725Z,-4.25
2022-12-16T00:11:10.225Z,-4.26
2022-12-16T00:13:38.734Z,-4.27
2022-12-16T00:16:07.170Z,-4.28
2022-12-16T00:18:35.068Z,-4.29
2022-12-16T00:21:02.541Z,-4.29
2022-12-16T00:23:30.321Z,-4.29
2022-12-16T00:25:57.185Z,-4.31
2022-12-16T00:28:24.030Z,-4.30
2022-12-16T00:30:53.190Z,-4.28
2022-12-16T00:33:24.581Z,-4.26
2022-12-16T00:35:52.612Z,-4.28
2022-12-16T00:38:20.707Z,-4.31
2022-12-16T00:40:47.269Z,-4.37
2022-12-16T00:43:13.984Z,-4.39
2022-12-16T00:45:40.712Z,-4.38
2022-12-16T00:48:08.261Z,-4.42
2022-12-16T00:50:35.597Z,-4.42
2022-12-16T00:53:02.814Z,-4.42
2022-12-16T00:55:29.380Z,-4.42
2022-12-16T00:57:55.860Z,-4.41
2022-12-16T01:00:23.776Z,-4.40
2022-12-16T01:02:51.717Z,-4.43
2022-12-16T01:05:21.916Z,-4.42
2022-12-16T01:07:48.654Z,-4.39
2022-12-16T01:10:15.439Z,-4.39
2022-12-16T01:12:42.014Z,-4.42
2022-12-16T01:15:10.929Z,-4.43
2022-12-16T01:17:37.925Z,-4.42
2022-12-16T01:20:04.853Z,-4.42
2022-12-16T01:22:32.768Z,-4.40
2022-12-16T01:25:00.651Z,-4.39
2022-12-16T01:27:28.433Z,-4.49
2022-12-16T01:29:55.472Z,-4.51
2022-12-16T01:32:22.569Z,-4.49
2022-12-16T01:34:55.126Z,-4.51
2022-12-16T01:37:23.676Z,-4.46
2022-12-16T01:39:50.658Z,-4.43
2022-12-16T01:42:20.560Z,-4.38
2022-12-16T01:44:51.924Z,-4.34
2022-12-16T01:47:27.984Z,-4.31
2022-12-16T01:50:00.428Z,-4.26
2022-12-16T01:52:43.514Z,-4.24
2022-12-16T01:55:16.065Z,-4.22
2022-12-16T01:57:49.246Z,-4.19
2022-12-16T02:00:16.951Z,-4.21
2022-12-16T02:02:46.755Z,-4.20
2022-12-16T02:05:21.889Z,-4.18
2022-12-16T02:08:18.867Z,-4.16
2022-12-16T02:10:45.959Z,-4.13
2022-12-16T02:13:49.831Z,-4.13
2022-12-16T02:16:26.334Z,-4.08
2022-12-16T02:19:10.834Z,-4.05
2022-12-16T02:21:53.701Z,-4.04
2022-12-16T02:24:38.302Z,-4.06
2022-12-16T02:27:26.990Z,-4.05
2022-12-16T02:30:02.230Z,-4.04
2022-12-16T02:32:40.717Z,-4.01
2022-12-16T02:35:25.466Z,-3.97
2022-12-16T02:38:26.219Z,-3.96
2022-12-16T02:41:02.911Z,-3.96
2022-12-16T02:43:53.571Z,-3.96
2022-12-16T02:46:24.031Z,-3.97
2022-12-16T02:48:50.739Z,-3.97
2022-12-16T02:51:18.035Z,-3.98
2022-12-16T02:53:46.801Z,-4.02
2022-12-16T02:56:25.723Z,-4.08
2022-12-16T02:58:57.926Z,-4.09
2022-12-16T03:02:02.250Z,-4.17
2022-12-16T03:04:43.421Z,-4.20
2022-12-16T03:07:14.726Z,-4.20
2022-12-16T03:09:43.943Z,-4.28
2022-12-16T03:12:14.494Z,-4.33
2022-12-16T03:14:45.346Z,-4.30
2022-12-16T03:17:14.609Z,-4.34
2022-12-16T03:19:46.215Z,-4.33
2022-12-16T03:22:20.296Z,-4.32
2022-12-16T03:24:47.281Z,-4.34
2022-12-16T03:27:44.785Z,-4.35
2022-12-16T03:30:22.260Z,-4.34
2022-12-16T03:32:59.936Z,-4.33
2022-12-16T03:35:49.683Z,-4.33
2022-12-16T03:38:17.165Z,-4.35
2022-12-16T03:40:44.775Z,-4.35
2022-12-16T03:43:16.218Z,-4.39
2022-12-16T03:45:46.026Z,-4.40
2022-12-16T03:48:13.966Z,-4.44
2022-12-16T03:50:41.027Z,-4.46
2022-12-16T03:53:08.522Z,-4.45
2022-12-16T03:55:35.254Z,-4.45
2022-12-16T03:58:01.939Z,-4.46
2022-12-16T04:00:28.486Z,-4.48
2022-12-16T04:02:55.164Z,-4.51
2022-12-16T04:05:22.346Z,-4.47
2022-12-16T04:07:49.040Z,-4.51
2022-12-16T04:10:15.682Z,-4.49
2022-12-16T04:13:01.077Z,-4.47
2022-12-16T04:15:46.424Z,-4.49
2022-12-16T04:18:35.351Z,-4.45
2022-12-16T04:21:21.665Z,-4.46
2022-12-16T04:24:13.717Z,-4.51
2022-12-16T04:26:58.366Z,-4.50
2022-12-16T04:29:25.613Z,-4.55
2022-12-16T04:31:52.444Z,-4.54
2022-12-16T04:34:29.434Z,-4.55
2022-12-16T04:37:19.375Z,-4.65
2022-12-16T04:40:04.850Z,-4.69
2022-12-16T04:42:50.658Z,-4.73
2022-12-16T04:45:36.805Z,-4.69
2022-12-16T04:48:22.202Z,-4.70
2022-12-16T04:51:06.921Z,-4.71
2022-12-16T04:53:51.769Z,-4.73
2022-12-16T04:56:36.597Z,-4.69
2022-12-16T04:59:21.461Z,-4.68
2022-12-16T05:02:06.923Z,-4.67
2022-12-16T05:04:52.453Z,-4.66
2022-12-16T05:07:38.749Z,-4.66
2022-12-16T05:10:25.081Z,-4.72
2022-12-16T05:13:12.532Z,-4.74
2022-12-16T05:15:58.584Z,-4.72
2022-12-16T05:18:43.665Z,-4.74
2022-12-16T05:21:28.798Z,-4.73
2022-12-16T05:24:13.749Z,-4.70
2022-12-16T05:26:58.540Z,-4.70
2022-12-16T05:29:43.417Z,-4.70
2022-12-16T05:32:28.317Z,-4.70
2022-12-16T05:35:13.234Z,-4.71
2022-12-16T05:37:58.114Z,-4.74
2022-12-16T05:40:43.192Z,-4.76
2022-12-16T05:43:28.110Z,-4.74
2022-12-16T05:46:13.081Z,-4.75
2022-12-16T05:48:58.324Z,-4.76
2022-12-16T05:51:43.374Z,-4.78
2022-12-16T05:54:28.368Z,-4.79
2022-12-16T05:57:13.116Z,-4.80
2022-12-16T05:59:58.132Z,-4.83
2022-12-16T06:02:43.183Z,-4.80
2022-12-16T06:05:28.480Z,-4.83
2022-12-16T06:08:13.321Z,-4.86
2022-12-16T06:10:58.389Z,-4.84
2022-12-16T06:13:43.258Z,-4.84
2022-12-16T06:16:28.686Z,-4.82
2022-12-16T06:19:13.781Z,-4.87
2022-12-16T06:21:58.775Z,-4.86
2022-12-16T06:24:44.159Z,-4.88
2022-12-16T06:27:28.950Z,-4.86
2022-12-16T06:30:13.954Z,-4.87
2022-12-16T06:33:00.933Z,-4.83
2022-12-16T06:35:46.157Z,-4.73
2022-12-16T06:38:31.173Z,-4.60
2022-12-16T06:41:16.012Z,-4.57
2022-12-16T06:44:00.987Z,-4.51
2022-12-16T06:46:45.895Z,-4.43
2022-12-16T06:49:30.835Z,-4.41
2022-12-16T06:52:20.143Z,-4.40
2022-12-16T06:55:04.975Z,-4.48
2022-12-16T06:57:49.922Z,-4.56
2022-12-16T07:00:35.331Z,-4.65
2022-12-16T07:03:20.273Z,-4.72
2022-12-16T07:06:05.306Z,-4.76
2022-12-16T07:08:50.433Z,-4.75
2022-12-16T07:11:35.470Z,-4.74
2022-12-16T07:14:20.892Z,-4.73
2022-12-16T07:17:05.808Z,-4.73
2022-12-16T07:19:50.549Z,-4.67
2022-12-16T07:22:35.540Z,-4.57
2022-12-16T07:25:20.314Z,-4.55
2022-12-16T07:28:10.727Z,-4.52
2022-12-16T07:31:00.889Z,-4.44
2022-12-16T07:33:45.691Z,-4.25
2022-12-16T07:36:30.704Z,-4.09
2022-12-16T07:39:15.603Z,-4.00
2022-12-16T07:42:00.595Z,-3.93
2022-12-16T07:44:45.568Z,-3.85
2022-12-16T07:47:31.196Z,-3.81
2022-12-16T07:50:16.415Z,-3.76
2022-12-16T07:53:01.737Z,-3.70
2022-12-16T07:55:46.565Z,-3.60
2022-12-16T07:58:31.603Z,-3.46
2022-12-16T08:01:16.479Z,-3.33
2022-12-16T08:04:01.838Z,-3.28
2022-12-16T08:06:47.164Z,-3.23
2022-12-16T08:09:32.227Z,-3.21
2022-12-16T08:12:17.223Z,-3.23
2022-12-16T08:15:02.257Z,-3.28
2022-12-16T08:17:47.220Z,-3.34
2022-12-16T08:20:32.236Z,-3.38
2022-12-16T08:23:17.056Z,-3.42
2022-12-16T08:26:01.946Z,-3.49
2022-12-16T08:28:46.909Z,-3.53
2022-12-16T08:31:31.759Z,-3.51
2022-12-16T08:34:16.678Z,-3.47
2022-12-16T08:37:01.679Z,-3.43
2022-12-16T08:39:51.352Z,-3.43
2022-12-16T08:42:49.647Z,-3.41
2022-12-16T08:45:35.354Z,-3.35
2022-12-16T08:48:20.205Z,-3.34
2022-12-16T08:51:05.628Z,-3.33
2022-12-16T08:53:51.497Z,-3.30
2022-12-16T08:56:36.474Z,-3.29
2022-12-16T08:59:21.935Z,-3.25
2022-12-16T09:02:07.396Z,-3.30
2022-12-16T09:04:52.925Z,-3.24
2022-12-16T09:07:40.627Z,-3.24
2022-12-16T09:10:26.073Z,-3.19
2022-12-16T09:13:11.005Z,-3.23
2022-12-16T09:15:56.055Z,-3.28
2022-12-16T09:18:41.758Z,-3.24
2022-12-16T09:21:31.722Z,-3.24
2022-12-16T09:24:18.096Z,-3.22
2022-12-16T09:27:03.287Z,-3.28
2022-12-16T09:29:48.018Z,-3.17
2022-12-16T09:32:33.286Z,-3.21
2022-12-16T09:35:18.278Z,-3.15
2022-12-16T09:38:07.280Z,-3.08
2022-12-16T09:40:52.268Z,-3.06
2022-12-16T09:44:00.724Z,-3.13
2022-12-16T09:47:14.116Z,-3.17
2022-12-16T09:50:04.975Z,-3.24
2022-12-16T09:53:01.454Z,-3.09
2022-12-16T09:55:59.095Z,-3.00
2022-12-16T09:58:49.312Z,-2.93
2022-12-16T10:01:34.711Z,-2.88
2022-12-16T10:04:20.081Z,-2.86
2022-12-16T10:07:26.537Z,-2.80
2022-12-16T10:10:26.202Z,-2.74
2022-12-16T10:13:38.709Z,-2.75
2022-12-16T10:17:02.294Z,-2.72
2022-12-16T10:20:09.202Z,-2.66
2022-12-16T10:23:32.509Z,-2.63
2022-12-16T10:26:46.808Z,-2.66
2022-12-16T10:29:38.234Z,-2.63
2022-12-16T10:33:04.057Z,-2.59
2022-12-16T10:36:04.146Z,-2.58
2022-12-16T10:38:57.660Z,-2.54
2022-12-16T10:41:46.759Z,-2.59
2022-12-16T10:44:41.811Z,-2.56
2022-12-16T10:47:32.176Z,-2.53
2022-12-16T10:50:17.629Z,-2.45
2022-12-16T10:53:24.031Z,-2.37
2022-12-16T10:56:18.415Z,-2.36
2022-12-16T10:59:05.699Z,-2.37
2022-12-16T11:01:50.704Z,-2.34
2022-12-16T11:04:55.934Z,-2.35
2022-12-16T11:07:55.760Z,-2.30
2022-12-16T11:10:49.830Z,-2.27
2022-12-16T11:13:37.780Z,-2.25
2022-12-16T11:16:28.443Z,-2.27
2022-12-16T11:19:13.680Z,-2.38
2022-12-16T11:21:59.359Z,-2.33
2022-12-16T11:24:44.909Z,-2.31
2022-12-16T11:27:44.040Z,-2.25
2022-12-16T11:30:32.010Z,-2.17
2022-12-16T11:33:44.129Z,-2.12
2022-12-16T11:36:51.028Z,-2.07
2022-12-16T11:39:40.615Z,-2.02
2022-12-16T11:42:29.658Z,-1.99
2022-12-16T11:45:19.672Z,-1.89
2022-12-16T11:48:08.797Z,-1.84
2022-12-16T11:50:59.037Z,-1.79
2022-12-16T11:54:05.007Z,-1.77
2022-12-16T11:57:00.102Z,-1.75
2022-12-16T12:00:08.345Z,-1.77
2022-12-16T12:03:01.433Z,-1.72
2022-12-16T12:06:10.922Z,-1.74
2022-12-16T12:09:16.388Z,-1.76
2022-12-16T12:12:09.951Z,-1.79
2022-12-16T12:15:02.422Z,-1.75
2022-12-16T12:18:03.602Z,-1.77
2022-12-16T12:20:55.863Z,-1.72
2022-12-16T12:23:57.121Z,-1.70
2022-12-16T12:26:51.698Z,-1.65
2022-12-16T12:29:49.944Z,-1.62
2022-12-16T12:32:44.556Z,-1.60
2022-12-16T12:35:38.896Z,-1.56
2022-12-16T12:38:30.415Z,-1.53
2022-12-16T12:41:34.102Z,-1.48
2022-12-16T12:44:48.551Z,-1.51
2022-12-16T12:47:36.216Z,-1.48
2022-12-16T12:50:31.735Z,-1.47
2022-12-16T12:53:42.904Z,-1.46
2022-12-16T12:56:35.435Z,-1.44
2022-12-16T12:59:30.452Z,-1.42
2022-12-16T13:02:17.341Z,-1.42
2022-12-16T13:05:03.128Z,-1.39
2022-12-16T13:07:50.654Z,-1.41
2022-12-16T13:10:38.578Z,-1.44
2022-12-16T13:13:36.876Z,-1.56
2022-12-16T13:16:25.528Z,-1.60
2022-12-16T13:19:48.545Z,-1.54
2022-12-16T13:22:55.392Z,-1.50
2022-12-16T13:26:11.858Z,-1.51
2022-12-16T13:29:00.105Z,-1.48
2022-12-16T13:31:47.740Z,-1.48
2022-12-16T13:34:32.949Z,-1.47
2022-12-16T13:37:26.984Z,-1.47
2022-12-16T13:40:22.886Z,-1.48
2022-12-16T13:43:10.644Z,-1.48
2022-12-16T13:46:23.047Z,-1.47
2022-12-16T13:49:08.825Z,-1.49
2022-12-16T13:51:56.694Z,-1.47
2022-12-16T13:55:03.079Z,-1.41
2022-12-16T13:57:54.178Z,-1.43
2022-12-16T14:00:44.316Z,-1.43
2022-12-16T14:04:01.315Z,-1.46
2022-12-16T14:06:49.121Z,-1.43
2022-12-16T14:09:56.578Z,-1.42
2022-12-16T14:13:08.578Z,-1.42
2022-12-16T14:16:06.689Z,-1.39
2022-12-16T14:19:01.182Z,-1.41
2022-12-16T14:21:56.712Z,-1.40
2022-12-16T14:24:46.536Z,-1.38
2022-12-16T14:27:37.508Z,-1.35
2022-12-16T14:30:38.825Z,-1.33
2022-12-16T14:33:44.519Z,-1.34
2022-12-16T14:36:57.748Z,-1.36
2022-12-16T14:39:48.771Z,-1.38
2022-12-16T14:42:47.835Z,-1.38
2022-12-16T14:45:40.745Z,-1.37
2022-12-16T14:48:57.415Z,-1.38
2022-12-16T14:51:48.098Z,-1.40
2022-12-16T14:54:42.307Z,-1.38
2022-12-16T14:57:36.233Z,-1.38
2022-12-16T15:00:27.378Z,-1.40
2022-12-16T15:03:21.575Z,-1.40
2022-12-16T15:06:09.243Z,-1.39
2022-12-16T15:09:09.805Z,-1.40
2022-12-16T15:11:55.663Z,-1.39
2022-12-16T15:14:51.136Z,-1.38
2022-12-16T15:17:40.628Z,-1.35
2022-12-16T15:20:39.789Z,-1.33
2022-12-16T15:23:38.414Z,-1.36
2022-12-16T15:26:25.399Z,-1.35
2022-12-16T15:29:10.786Z,-1.35
2022-12-16T15:32:06.126Z,-1.36
2022-12-16T15:35:07.965Z,-1.38
2022-12-16T15:38:04.243Z,-1.35
2022-12-16T15:40:52.304Z,-1.35
2022-12-16T15:43:48.561Z,-1.37
2022-12-16T15:46:36.494Z,-1.38
2022-12-16T15:49:22.656Z,-1.37
2022-12-16T15:52:09.892Z,-1.35
2022-12-16T15:55:12.091Z,-1.31
2022-12-16T15:57:58.046Z,-1.33
2022-12-16T16:00:47.132Z,-1.32
2022-12-16T16:03:39.666Z,-1.32
2022-12-16T16:06:34.603Z,-1.30
2022-12-16T16:09:20.073Z,-1.33
2022-12-16T16:12:04.987Z,-1.33
2022-12-16T16:14:49.877Z,-1.34
2022-12-16T16:17:40.869Z,-1.35
2022-12-16T16:20:32.854Z,-1.32
2022-12-16T16:23:18.251Z,-1.33
2022-12-16T16:26:05.269Z,-1.30
2022-12-16T16:28:50.702Z,-1.26
2022-12-16T16:31:36.083Z,-1.27
2022-12-16T16:34:21.870Z,-1.26
2022-12-16T16:37:12.383Z,-1.27
2022-12-16T16:40:14.605Z,-1.28
2022-12-16T16:42:59.633Z,-1.28
2022-12-16T16:45:44.494Z,-1.29
2022-12-16T16:48:33.002Z,-1.34
2022-12-16T16:51:19.017Z,-1.35
2022-12-16T16:54:04.421Z,-1.35
2022-12-16T16:56:52.187Z,-1.32
2022-12-16T16:59:42.722Z,-1.28
2022-12-16T17:02:41.351Z,-1.25
2022-12-16T17:05:31.184Z,-1.22
2022-12-16T17:08:16.599Z,-1.21
2022-12-16T17:11:02.635Z,-1.24
2022-12-16T17:13:47.559Z,-1.26
2022-12-16T17:16:34.149Z,-1.27
2022-12-16T17:19:22.897Z,-1.27
2022-12-16T17:22:08.491Z,-1.26
2022-12-16T17:24:54.541Z,-1.27
2022-12-16T17:27:43.258Z,-1.26
2022-12-16T17:30:40.696Z,-1.26
2022-12-16T17:33:28.558Z,-1.28
2022-12-16T17:36:13.471Z,-1.28
2022-12-16T17:39:00.844Z,-1.29
2022-12-16T17:41:47.338Z,-1.26
2022-12-16T17:44:33.189Z,-1.25
2022-12-16T17:47:18.131Z,-1.25
2022-12-16T17:50:03.653Z,-1.24
2022-12-16T17:52:49.319Z,-1.28
2022-12-16T17:55:34.874Z,-1.29
2022-12-16T17:58:19.846Z,-1.30
2022-12-16T18:01:04.781Z,-1.32
2022-12-16T18:03:49.700Z,-1.30
2022-12-16T18:06:34.958Z,-1.30
2022-12-16T18:09:19.826Z,-1.28
2022-12-16T18:12:04.903Z,-1.24
2022-12-16T18:14:49.770Z,-1.29
2022-12-16T18:17:35.136Z,-1.27
2022-12-16T18:20:20.517Z,-1.26
2022-12-16T18:23:05.683Z,-1.23
2022-12-16T18:25:50.441Z,-1.28
2022-12-16T18:28:35.745Z,-1.27
2022-12-16T18:31:24.177Z,-1.27
2022-12-16T18:34:09.574Z,-1.24
2022-12-16T18:36:54.946Z,-1.24
2022-12-16T18:39:39.925Z,-1.24
2022-12-16T18:42:24.750Z,-1.20
2022-12-16T18:45:09.738Z,-1.19
2022-12-16T18:47:54.738Z,-1.17
2022-12-16T18:50:39.730Z,-1.16
2022-12-16T18:53:25.642Z,-1.19
2022-12-16T18:56:25.756Z,-1.21
2022-12-16T18:59:11.768Z,-1.20
2022-12-16T19:01:57.305Z,-1.18
2022-12-16T19:04:43.065Z,-1.19
2022-12-16T19:07:31.707Z,-1.19
2022-12-16T19:10:18.879Z,-1.15
2022-12-16T19:13:03.654Z,-1.14
2022-12-16T19:15:48.712Z,-1.13
2022-12-16T19:18:33.912Z,-1.12
2022-12-16T19:21:19.652Z,-1.13
2022-12-16T19:24:07.174Z,-1.14
2022-12-16T19:26:52.477Z,-1.13
2022-12-16T19:29:41.770Z,-1.11
2022-12-16T19:32:26.866Z,-1.11
2022-12-16T19:35:12.072Z,-1.12
2022-12-16T19:37:57.119Z,-1.11
2022-12-16T19:40:42.203Z,-1.11
2022-12-16T19:43:27.651Z,-1.09
2022-12-16T19:46:14.316Z,-1.09
2022-12-16T19:48:59.402Z,-1.09
2022-12-16T19:51:45.014Z,-1.10
2022-12-16T19:54:29.941Z,-1.08
2022-12-16T19:57:22.388Z,-1.08
2022-12-16T20:00:07.352Z,-1.06
2022-12-16T20:02:52.469Z,-1.07
2022-12-16T20:05:38.715Z,-1.05
2022-12-16T20:08:23.709Z,-1.07
2022-12-16T20:11:08.501Z,-1.07
2022-12-16T20:13:56.000Z,-1.05
2022-12-16T20:16:41.137Z,-1.09
2022-12-16T20:19:25.982Z,-1.05
2022-12-16T20:22:14.564Z,-1.07
2022-12-16T20:25:01.717Z,-1.07
2022-12-16T20:27:47.020Z,-1.08
2022-12-16T20:30:32.010Z,-1.13
2022-12-16T20:33:16.889Z,-1.11
2022-12-16T20:36:01.936Z,-1.11
2022-12-16T20:38:46.843Z,-1.10
2022-12-16T20:41:31.749Z,-1.10
2022-12-16T20:44:16.576Z,-1.13
2022-12-16T20:47:01.490Z,-1.13
2022-12-16T20:49:46.265Z,-1.10
2022-12-16T20:52:31.368Z,-1.11
2022-12-16T20:55:16.222Z,-1.11
2022-12-16T20:58:01.447Z,-1.12
2022-12-16T21:00:46.461Z,-1.10
2022-12-16T21:03:31.718Z,-1.09
2022-12-16T21:06:16.696Z,-1.09
2022-12-16T21:09:01.687Z,-1.10
2022-12-16T21:11:47.542Z,-1.15
2022-12-16T21:14:32.472Z,-1.14
2022-12-16T21:17:17.453Z,-1.12
2022-12-16T21:20:02.354Z,-1.15
2022-12-16T21:22:47.204Z,-1.16
2022-12-16T21:25:32.703Z,-1.20
2022-12-16T21:28:18.273Z,-1.19
2022-12-16T21:31:03.203Z,-1.18
2022-12-16T21:33:49.099Z,-1.15
2022-12-16T21:36:34.342Z,-1.12
2022-12-16T21:39:19.267Z,-1.11
2022-12-16T21:42:04.575Z,-1.12
2022-12-16T21:44:49.537Z,-1.12
2022-12-16T21:47:34.458Z,-1.15
2022-12-16T21:50:19.484Z,-1.13
2022-12-16T21:53:06.921Z,-1.10
2022-12-16T21:55:52.194Z,-1.09
2022-12-16T21:58:37.578Z,-1.09
2022-12-16T22:01:23.135Z,-1.12
2022-12-16T22:04:08.430Z,-1.10
2022-12-16T22:06:54.870Z,-1.06
2022-12-16T22:09:40.227Z,-1.08
2022-12-16T22:12:25.154Z,-1.08
2022-12-16T22:15:10.122Z,-1.09
2022-12-16T22:17:58.485Z,-1.08
2022-12-16T22:20:44.713Z,-1.06
2022-12-16T22:23:29.599Z,-1.05
2022-12-16T22:26:18.554Z,-1.02
2022-12-16T22:29:03.846Z,-1.03
2022-12-16T22:31:48.810Z,-1.01
2022-12-16T22:34:34.300Z,-1.01
2022-12-16T22:37:33.020Z,-0.99
2022-12-16T22:40:17.990Z,-0.92
2022-12-16T22:43:02.987Z,-0.92
2022-12-16T22:45:47.871Z,-0.94
2022-12-16T22:48:34.639Z,-1.07
2022-12-16T22:51:19.460Z,-1.07
2022-12-16T22:54:07.408Z,-1.06
2022-12-16T22:56:52.408Z,-1.02
2022-12-16T22:59:41.244Z,-1.01
2022-12-16T23:02:26.146Z,-0.97
2022-12-16T23:05:11.150Z,-0.94
2022-12-16T23:08:09.649Z,-0.91
2022-12-16T23:10:54.583Z,-0.91
2022-12-16T23:13:43.304Z,-1.02
2022-12-16T23:16:28.701Z,-1.02
2022-12-16T23:19:13.932Z,-1.01
2022-12-16T23:21:58.862Z,-1.02
2022-12-16T23:24:43.890Z,-1.13
2022-12-16T23:27:28.637Z,-1.11
2022-12-16T23:30:13.624Z,-1.12
2022-12-16T23:32:58.571Z,-1.16
2022-12-16T23:35:43.452Z,-1.19
2022-12-16T23:38:48.651Z,-1.15
2022-12-16T23:41:33.983Z,-1.13
2022-12-16T23:44:19.292Z,-1.13
2022-12-16T23:47:04.286Z,-1.14
2022-12-16T23:49:49.264Z,-1.15
2022-12-16T23:52:34.630Z,-1.19
2022-12-16T23:55:19.451Z,-1.19
2022-12-16T23:58:04.449Z,-1.13
